sensor_id;sensor_type;location;lat;lon;timestamp;P1;durP1;ratioP1;P2;durP2;ratioP2
846;SDS011;410;48.954;9.474;2023-04-01T00:00:00;2.30;;;0.60;;
846;SDS011;410;48.954;9.474;2023-04-01T00:02:14;1.40;;;0.60;;
846;SDS011;410;48.954;9.474;2023-04-01T00:04:17;1.33;;;0.60;;
846;SDS011;410;48.954;9.474;2023-04-01T00:06:20;3.70;;;0.80;;
846;SDS011;410;48.954;9.474;2023-04-01T00:08:23;2.13;;;1.33;;
846;SDS011;410;48.954;9.474;2023-04-01T00:10:27;1.90;;;0.60;;
846;SDS011;410;48.954;9.474;2023-04-01T00:12:30;3.80;;;1.02;;
846;SDS011;410;48.954;9.474;2023-04-01T00:14:33;2.90;;;0.65;;
846;SDS011;410;48.954;9.474;2023-04-01T00:16:38;1.77;;;0.60;;
846;SDS011;410;48.954;9.474;2023-04-01T00:18:43;1.30;;;0.60;;
846;SDS011;410;48.954;9.474;2023-04-01T00:20:49;1.90;;;0.60;;
846;SDS011;410;48.954;9.474;2023-04-01T00:22:52;2.47;;;0.60;;
846;SDS011;410;48.954;9.474;2023-04-01T00:24:56;2.08;;;0.70;;
846;SDS011;410;48.954;9.474;2023-04-01T00:26:59;1.77;;;0.82;;
846;SDS011;410;48.954;9.474;2023-04-01T00:29:02;1.83;;;0.60;;
846;SDS011;410;48.954;9.474;2023-04-01T00:31:07;1.80;;;0.80;;
846;SDS011;410;48.954;9.474;2023-04-01T00:33:11;1.23;;;0.60;;
846;SDS011;410;48.954;9.474;2023-04-01T00:35:15;1.47;;;0.50;;
846;SDS011;410;48.954;9.474;2023-04-01T00:37:19;2.38;;;0.50;;
846;SDS011;410;48.954;9.474;2023-04-01T00:39:22;1.77;;;0.57;;
846;SDS011;410;48.954;9.474;2023-04-01T00:41:25;1.00;;;0.60;;
846;SDS011;410;48.954;9.474;2023-04-01T00:43:29;2.13;;;0.80;;
846;SDS011;410;48.954;9.474;2023-04-01T00:45:33;1.80;;;0.90;;
846;SDS011;410;48.954;9.474;2023-04-01T00:47:38;2.47;;;0.70;;
846;SDS011;410;48.954;9.474;2023-04-01T00:49:42;2.80;;;0.80;;
846;SDS011;410;48.954;9.474;2023-04-01T00:51:48;5.32;;;1.15;;
846;SDS011;410;48.954;9.474;2023-04-01T00:53:53;1.60;;;0.70;;
846;SDS011;410;48.954;9.474;2023-04-01T00:55:59;3.15;;;0.82;;
846;SDS011;410;48.954;9.474;2023-04-01T00:58:04;1.45;;;0.70;;
846;SDS011;410;48.954;9.474;2023-04-01T01:00:08;2.80;;;0.82;;
846;SDS011;410;48.954;9.474;2023-04-01T01:02:14;3.73;;;1.03;;
846;SDS011;410;48.954;9.474;2023-04-01T01:04:21;4.20;;;0.90;;
846;SDS011;410;48.954;9.474;2023-04-01T01:06:29;4.57;;;0.90;;
846;SDS011;410;48.954;9.474;2023-04-01T01:08:51;1.53;;;0.70;;
846;SDS011;410;48.954;9.474;2023-04-01T01:11:00;2.05;;;1.00;;
846;SDS011;410;48.954;9.474;2023-04-01T01:13:04;2.47;;;0.77;;
846;SDS011;410;48.954;9.474;2023-04-01T01:15:14;2.78;;;1.00;;
846;SDS011;410;48.954;9.474;2023-04-01T01:17:26;2.88;;;1.10;;
846;SDS011;410;48.954;9.474;2023-04-01T01:22:35;2.67;;;0.88;;
846;SDS011;410;48.954;9.474;2023-04-01T01:24:44;2.75;;;0.75;;
846;SDS011;410;48.954;9.474;2023-04-01T01:26:58;3.10;;;0.95;;
846;SDS011;410;48.954;9.474;2023-04-01T01:29:06;2.38;;;0.85;;
846;SDS011;410;48.954;9.474;2023-04-01T01:31:15;1.55;;;0.93;;
846;SDS011;410;48.954;9.474;2023-04-01T01:33:27;2.27;;;0.77;;
846;SDS011;410;48.954;9.474;2023-04-01T01:35:39;4.40;;;1.00;;
846;SDS011;410;48.954;9.474;2023-04-01T01:37:51;1.40;;;0.80;;
846;SDS011;410;48.954;9.474;2023-04-01T01:39:58;3.90;;;1.15;;
846;SDS011;410;48.954;9.474;2023-04-01T01:42:06;2.22;;;0.70;;
846;SDS011;410;48.954;9.474;2023-04-01T01:44:11;3.45;;;0.98;;
846;SDS011;410;48.954;9.474;2023-04-01T01:46:17;5.10;;;0.90;;
846;SDS011;410;48.954;9.474;2023-04-01T01:48:23;3.17;;;1.00;;
846;SDS011;410;48.954;9.474;2023-04-01T01:50:27;4.68;;;1.00;;
846;SDS011;410;48.954;9.474;2023-04-01T01:52:32;5.07;;;0.88;;
846;SDS011;410;48.954;9.474;2023-04-01T01:54:36;3.67;;;0.90;;
846;SDS011;410;48.954;9.474;2023-04-01T01:56:39;2.00;;;0.70;;
846;SDS011;410;48.954;9.474;2023-04-01T01:58:49;2.78;;;0.80;;
846;SDS011;410;48.954;9.474;2023-04-01T02:00:56;2.35;;;0.70;;
846;SDS011;410;48.954;9.474;2023-04-01T02:03:00;3.13;;;0.90;;
846;SDS011;410;48.954;9.474;2023-04-01T02:05:04;3.38;;;0.82;;
846;SDS011;410;48.954;9.474;2023-04-01T02:07:08;4.63;;;0.90;;
846;SDS011;410;48.954;9.474;2023-04-01T02:09:16;2.87;;;0.90;;
846;SDS011;410;48.954;9.474;2023-04-01T02:11:21;2.30;;;1.00;;
846;SDS011;410;48.954;9.474;2023-04-01T02:13:30;3.08;;;0.63;;
846;SDS011;410;48.954;9.474;2023-04-01T02:15:37;2.45;;;0.75;;
846;SDS011;410;48.954;9.474;2023-04-01T02:17:44;3.67;;;0.80;;
846;SDS011;410;48.954;9.474;2023-04-01T02:19:50;2.63;;;0.80;;
846;SDS011;410;48.954;9.474;2023-04-01T02:21:56;2.03;;;0.90;;
846;SDS011;410;48.954;9.474;2023-04-01T02:24:02;1.77;;;0.73;;
846;SDS011;410;48.954;9.474;2023-04-01T02:26:09;4.07;;;1.00;;
846;SDS011;410;48.954;9.474;2023-04-01T02:28:12;2.50;;;0.70;;
846;SDS011;410;48.954;9.474;2023-04-01T02:30:18;2.55;;;1.05;;
846;SDS011;410;48.954;9.474;2023-04-01T02:32:21;2.78;;;0.80;;
846;SDS011;410;48.954;9.474;2023-04-01T02:34:25;1.53;;;0.70;;
846;SDS011;410;48.954;9.474;2023-04-01T02:36:29;3.93;;;1.33;;
846;SDS011;410;48.954;9.474;2023-04-01T02:38:32;2.72;;;0.70;;
846;SDS011;410;48.954;9.474;2023-04-01T02:40:42;2.05;;;0.93;;
846;SDS011;410;48.954;9.474;2023-04-01T02:42:48;1.27;;;0.52;;
846;SDS011;410;48.954;9.474;2023-04-01T02:44:51;2.70;;;0.80;;
846;SDS011;410;48.954;9.474;2023-04-01T02:46:54;3.22;;;0.85;;
846;SDS011;410;48.954;9.474;2023-04-01T02:48:58;3.33;;;1.48;;
846;SDS011;410;48.954;9.474;2023-04-01T02:51:01;2.25;;;0.55;;
846;SDS011;410;48.954;9.474;2023-04-01T02:53:04;1.08;;;0.47;;
846;SDS011;410;48.954;9.474;2023-04-01T02:55:08;2.03;;;0.50;;
846;SDS011;410;48.954;9.474;2023-04-01T02:57:11;1.98;;;0.85;;
846;SDS011;410;48.954;9.474;2023-04-01T02:59:16;1.95;;;0.70;;
846;SDS011;410;48.954;9.474;2023-04-01T03:01:19;2.10;;;0.70;;
846;SDS011;410;48.954;9.474;2023-04-01T03:03:23;2.50;;;0.73;;
846;SDS011;410;48.954;9.474;2023-04-01T03:05:29;1.70;;;0.77;;
846;SDS011;410;48.954;9.474;2023-04-01T03:07:33;0.90;;;0.50;;
846;SDS011;410;48.954;9.474;2023-04-01T03:09:36;3.35;;;1.15;;
846;SDS011;410;48.954;9.474;2023-04-01T03:11:40;1.00;;;0.63;;
846;SDS011;410;48.954;9.474;2023-04-01T03:13:43;1.70;;;0.43;;
846;SDS011;410;48.954;9.474;2023-04-01T03:15:48;1.83;;;0.80;;
846;SDS011;410;48.954;9.474;2023-04-01T03:17:51;2.08;;;0.55;;
846;SDS011;410;48.954;9.474;2023-04-01T03:19:54;2.25;;;0.65;;
846;SDS011;410;48.954;9.474;2023-04-01T03:21:58;1.00;;;0.40;;
846;SDS011;410;48.954;9.474;2023-04-01T03:24:01;2.13;;;0.60;;
846;SDS011;410;48.954;9.474;2023-04-01T03:26:04;1.35;;;0.52;;
846;SDS011;410;48.954;9.474;2023-04-01T03:28:07;1.15;;;0.63;;
846;SDS011;410;48.954;9.474;2023-04-01T03:30:11;2.60;;;0.70;;
846;SDS011;410;48.954;9.474;2023-04-01T03:32:24;0.97;;;0.50;;
846;SDS011;410;48.954;9.474;2023-04-01T03:34:28;1.95;;;0.65;;
846;SDS011;410;48.954;9.474;2023-04-01T03:36:31;2.45;;;0.60;;
846;SDS011;410;48.954;9.474;2023-04-01T03:38:35;2.42;;;0.65;;
846;SDS011;410;48.954;9.474;2023-04-01T03:40:41;1.25;;;0.65;;
846;SDS011;410;48.954;9.474;2023-04-01T03:42:45;2.20;;;0.40;;
846;SDS011;410;48.954;9.474;2023-04-01T03:44:49;1.23;;;0.50;;
846;SDS011;410;48.954;9.474;2023-04-01T03:46:52;1.30;;;0.45;;
846;SDS011;410;48.954;9.474;2023-04-01T03:48:56;1.30;;;0.40;;
846;SDS011;410;48.954;9.474;2023-04-01T03:50:59;1.05;;;0.57;;
846;SDS011;410;48.954;9.474;2023-04-01T03:53:04;1.65;;;0.60;;
846;SDS011;410;48.954;9.474;2023-04-01T03:55:08;0.80;;;0.40;;
846;SDS011;410;48.954;9.474;2023-04-01T03:57:13;1.10;;;0.50;;
846;SDS011;410;48.954;9.474;2023-04-01T03:59:16;1.27;;;0.47;;
846;SDS011;410;48.954;9.474;2023-04-01T04:01:20;2.00;;;0.40;;
846;SDS011;410;48.954;9.474;2023-04-01T04:03:27;1.60;;;0.40;;
846;SDS011;410;48.954;9.474;2023-04-01T04:05:33;3.45;;;0.40;;
846;SDS011;410;48.954;9.474;2023-04-01T04:07:37;2.15;;;0.47;;
846;SDS011;410;48.954;9.474;2023-04-01T04:09:42;1.20;;;0.50;;
846;SDS011;410;48.954;9.474;2023-04-01T04:11:45;1.53;;;0.40;;
846;SDS011;410;48.954;9.474;2023-04-01T04:13:48;1.67;;;0.50;;
846;SDS011;410;48.954;9.474;2023-04-01T04:15:53;2.30;;;0.50;;
846;SDS011;410;48.954;9.474;2023-04-01T04:17:56;1.05;;;0.47;;
846;SDS011;410;48.954;9.474;2023-04-01T04:19:59;1.83;;;0.65;;
846;SDS011;410;48.954;9.474;2023-04-01T04:22:04;1.85;;;0.40;;
846;SDS011;410;48.954;9.474;2023-04-01T04:24:08;1.48;;;0.40;;
846;SDS011;410;48.954;9.474;2023-04-01T04:26:44;1.77;;;0.70;;
846;SDS011;410;48.954;9.474;2023-04-01T04:28:48;1.35;;;0.50;;
846;SDS011;410;48.954;9.474;2023-04-01T04:30:52;1.67;;;0.90;;
846;SDS011;410;48.954;9.474;2023-04-01T04:32:56;1.48;;;0.50;;
846;SDS011;410;48.954;9.474;2023-04-01T04:34:59;2.33;;;0.60;;
846;SDS011;410;48.954;9.474;2023-04-01T04:37:02;1.88;;;0.50;;
846;SDS011;410;48.954;9.474;2023-04-01T04:39:10;0.98;;;0.40;;
846;SDS011;410;48.954;9.474;2023-04-01T04:41:15;1.10;;;0.50;;
846;SDS011;410;48.954;9.474;2023-04-01T04:43:24;0.90;;;0.50;;
846;SDS011;410;48.954;9.474;2023-04-01T04:45:27;1.20;;;0.47;;
846;SDS011;410;48.954;9.474;2023-04-01T04:47:31;1.85;;;0.60;;
846;SDS011;410;48.954;9.474;2023-04-01T04:49:34;1.52;;;0.60;;
846;SDS011;410;48.954;9.474;2023-04-01T04:51:41;2.45;;;0.55;;
846;SDS011;410;48.954;9.474;2023-04-01T04:53:45;2.60;;;1.10;;
846;SDS011;410;48.954;9.474;2023-04-01T04:55:53;1.60;;;0.70;;
846;SDS011;410;48.954;9.474;2023-04-01T04:58:18;1.65;;;0.60;;
846;SDS011;410;48.954;9.474;2023-04-01T05:00:23;4.80;;;0.80;;
846;SDS011;410;48.954;9.474;2023-04-01T05:02:30;1.60;;;0.50;;
846;SDS011;410;48.954;9.474;2023-04-01T05:04:34;2.00;;;0.70;;
846;SDS011;410;48.954;9.474;2023-04-01T05:06:42;2.58;;;0.60;;
846;SDS011;410;48.954;9.474;2023-04-01T05:08:46;1.50;;;0.70;;
846;SDS011;410;48.954;9.474;2023-04-01T05:10:49;1.10;;;0.52;;
846;SDS011;410;48.954;9.474;2023-04-01T05:12:54;1.85;;;0.57;;
846;SDS011;410;48.954;9.474;2023-04-01T05:14:58;1.60;;;0.50;;
846;SDS011;410;48.954;9.474;2023-04-01T05:17:01;1.83;;;0.60;;
846;SDS011;410;48.954;9.474;2023-04-01T05:19:04;1.67;;;0.60;;
846;SDS011;410;48.954;9.474;2023-04-01T05:21:08;2.97;;;0.57;;
846;SDS011;410;48.954;9.474;2023-04-01T05:23:12;2.65;;;0.52;;
846;SDS011;410;48.954;9.474;2023-04-01T05:25:15;1.17;;;0.50;;
846;SDS011;410;48.954;9.474;2023-04-01T05:27:18;2.35;;;0.60;;
846;SDS011;410;48.954;9.474;2023-04-01T05:29:23;1.20;;;0.68;;
846;SDS011;410;48.954;9.474;2023-04-01T05:31:32;2.30;;;0.60;;
846;SDS011;410;48.954;9.474;2023-04-01T05:33:37;1.35;;;0.70;;
846;SDS011;410;48.954;9.474;2023-04-01T05:35:40;2.75;;;0.60;;
846;SDS011;410;48.954;9.474;2023-04-01T05:37:44;1.70;;;0.65;;
846;SDS011;410;48.954;9.474;2023-04-01T05:39:47;4.43;;;1.05;;
846;SDS011;410;48.954;9.474;2023-04-01T05:41:50;3.55;;;1.30;;
846;SDS011;410;48.954;9.474;2023-04-01T05:43:53;4.07;;;1.20;;
846;SDS011;410;48.954;9.474;2023-04-01T05:46:24;3.15;;;1.20;;
846;SDS011;410;48.954;9.474;2023-04-01T05:48:38;4.63;;;1.40;;
846;SDS011;410;48.954;9.474;2023-04-01T05:50:41;4.72;;;2.10;;
846;SDS011;410;48.954;9.474;2023-04-01T05:52:45;4.63;;;1.80;;
846;SDS011;410;48.954;9.474;2023-04-01T05:54:48;2.70;;;1.40;;
846;SDS011;410;48.954;9.474;2023-04-01T05:56:52;3.70;;;1.40;;
846;SDS011;410;48.954;9.474;2023-04-01T05:58:55;2.47;;;1.00;;
846;SDS011;410;48.954;9.474;2023-04-01T06:01:01;2.78;;;1.23;;
846;SDS011;410;48.954;9.474;2023-04-01T06:03:16;2.05;;;0.70;;
846;SDS011;410;48.954;9.474;2023-04-01T06:05:20;1.90;;;0.90;;
846;SDS011;410;48.954;9.474;2023-04-01T06:07:24;2.50;;;0.90;;
846;SDS011;410;48.954;9.474;2023-04-01T06:09:27;3.67;;;0.93;;
846;SDS011;410;48.954;9.474;2023-04-01T06:11:33;2.47;;;0.68;;
846;SDS011;410;48.954;9.474;2023-04-01T06:13:43;3.28;;;1.02;;
846;SDS011;410;48.954;9.474;2023-04-01T06:15:57;1.20;;;0.50;;
846;SDS011;410;48.954;9.474;2023-04-01T06:20:30;5.57;;;2.28;;
846;SDS011;410;48.954;9.474;2023-04-01T06:22:45;1.80;;;1.20;;
846;SDS011;410;48.954;9.474;2023-04-01T06:25:10;2.97;;;0.80;;
846;SDS011;410;48.954;9.474;2023-04-01T06:27:44;2.20;;;0.70;;
846;SDS011;410;48.954;9.474;2023-04-01T06:29:57;2.10;;;0.67;;
846;SDS011;410;48.954;9.474;2023-04-01T06:32:22;1.67;;;0.80;;
846;SDS011;410;48.954;9.474;2023-04-01T06:37:43;1.80;;;0.50;;
846;SDS011;410;48.954;9.474;2023-04-01T06:40:06;2.00;;;0.60;;
846;SDS011;410;48.954;9.474;2023-04-01T06:42:24;1.83;;;0.60;;
846;SDS011;410;48.954;9.474;2023-04-01T06:44:43;2.40;;;0.70;;
846;SDS011;410;48.954;9.474;2023-04-01T06:47:16;2.43;;;1.57;;
846;SDS011;410;48.954;9.474;2023-04-01T06:50:07;2.35;;;1.27;;
846;SDS011;410;48.954;9.474;2023-04-01T06:52:48;4.03;;;2.40;;
846;SDS011;410;48.954;9.474;2023-04-01T06:55:18;1.00;;;0.50;;
846;SDS011;410;48.954;9.474;2023-04-01T06:57:47;2.67;;;0.73;;
846;SDS011;410;48.954;9.474;2023-04-01T06:59:52;1.90;;;0.80;;
846;SDS011;410;48.954;9.474;2023-04-01T07:02:00;2.63;;;0.67;;
846;SDS011;410;48.954;9.474;2023-04-01T07:04:05;5.63;;;1.40;;
846;SDS011;410;48.954;9.474;2023-04-01T07:06:14;3.20;;;1.10;;
846;SDS011;410;48.954;9.474;2023-04-01T07:08:29;4.27;;;0.80;;
846;SDS011;410;48.954;9.474;2023-04-01T07:10:34;4.30;;;1.03;;
846;SDS011;410;48.954;9.474;2023-04-01T07:13:04;2.15;;;0.73;;
846;SDS011;410;48.954;9.474;2023-04-01T07:15:29;1.30;;;0.60;;
846;SDS011;410;48.954;9.474;2023-04-01T07:17:38;0.88;;;0.50;;
846;SDS011;410;48.954;9.474;2023-04-01T07:19:44;3.93;;;1.00;;
846;SDS011;410;48.954;9.474;2023-04-01T07:21:49;1.85;;;0.88;;
846;SDS011;410;48.954;9.474;2023-04-01T07:24:09;3.57;;;0.83;;
846;SDS011;410;48.954;9.474;2023-04-01T07:26:19;1.60;;;0.73;;
846;SDS011;410;48.954;9.474;2023-04-01T07:28:41;3.10;;;1.07;;
846;SDS011;410;48.954;9.474;2023-04-01T07:31:02;1.20;;;0.50;;
846;SDS011;410;48.954;9.474;2023-04-01T07:33:13;2.33;;;0.80;;
846;SDS011;410;48.954;9.474;2023-04-01T07:35:21;1.93;;;0.67;;
846;SDS011;410;48.954;9.474;2023-04-01T07:37:28;2.93;;;1.13;;
846;SDS011;410;48.954;9.474;2023-04-01T07:39:38;2.88;;;1.40;;
846;SDS011;410;48.954;9.474;2023-04-01T07:41:51;2.90;;;1.00;;
846;SDS011;410;48.954;9.474;2023-04-01T07:44:04;3.50;;;0.90;;
846;SDS011;410;48.954;9.474;2023-04-01T07:46:15;2.80;;;0.80;;
846;SDS011;410;48.954;9.474;2023-04-01T07:48:25;1.58;;;0.50;;
846;SDS011;410;48.954;9.474;2023-04-01T07:50:38;1.83;;;0.60;;
846;SDS011;410;48.954;9.474;2023-04-01T07:52:48;2.60;;;0.97;;
846;SDS011;410;48.954;9.474;2023-04-01T07:55:00;1.10;;;0.50;;
846;SDS011;410;48.954;9.474;2023-04-01T07:57:11;2.27;;;1.00;;
846;SDS011;410;48.954;9.474;2023-04-01T07:59:25;1.83;;;0.80;;
846;SDS011;410;48.954;9.474;2023-04-01T08:01:35;2.80;;;1.20;;
846;SDS011;410;48.954;9.474;2023-04-01T08:03:48;2.07;;;1.13;;
846;SDS011;410;48.954;9.474;2023-04-01T08:06:00;1.53;;;0.60;;
846;SDS011;410;48.954;9.474;2023-04-01T08:08:08;2.37;;;0.83;;
846;SDS011;410;48.954;9.474;2023-04-01T08:10:39;1.10;;;0.67;;
846;SDS011;410;48.954;9.474;2023-04-01T08:13:21;3.27;;;0.60;;
846;SDS011;410;48.954;9.474;2023-04-01T08:15:49;3.27;;;1.27;;
846;SDS011;410;48.954;9.474;2023-04-01T08:18:20;1.30;;;0.50;;
846;SDS011;410;48.954;9.474;2023-04-01T08:20:28;2.27;;;0.60;;
846;SDS011;410;48.954;9.474;2023-04-01T08:22:38;3.40;;;1.50;;
846;SDS011;410;48.954;9.474;2023-04-01T08:24:58;4.10;;;1.87;;
846;SDS011;410;48.954;9.474;2023-04-01T08:27:09;5.50;;;2.97;;
846;SDS011;410;48.954;9.474;2023-04-01T08:29:16;8.13;;;4.80;;
846;SDS011;410;48.954;9.474;2023-04-01T08:31:23;6.17;;;3.77;;
846;SDS011;410;48.954;9.474;2023-04-01T08:33:28;6.50;;;4.03;;
846;SDS011;410;48.954;9.474;2023-04-01T08:35:39;2.30;;;1.37;;
846;SDS011;410;48.954;9.474;2023-04-01T08:37:44;1.77;;;0.80;;
846;SDS011;410;48.954;9.474;2023-04-01T08:39:52;2.20;;;0.80;;
846;SDS011;410;48.954;9.474;2023-04-01T08:45:00;2.90;;;0.80;;
846;SDS011;410;48.954;9.474;2023-04-01T08:47:24;1.87;;;0.70;;
846;SDS011;410;48.954;9.474;2023-04-01T08:49:47;1.00;;;0.50;;
846;SDS011;410;48.954;9.474;2023-04-01T08:52:25;2.97;;;0.60;;
846;SDS011;410;48.954;9.474;2023-04-01T08:54:37;1.67;;;0.67;;
846;SDS011;410;48.954;9.474;2023-04-01T08:56:57;1.10;;;0.40;;
846;SDS011;410;48.954;9.474;2023-04-01T08:59:09;2.17;;;0.60;;
846;SDS011;410;48.954;9.474;2023-04-01T09:01:24;1.73;;;0.60;;
846;SDS011;410;48.954;9.474;2023-04-01T09:03:36;2.23;;;0.60;;
846;SDS011;410;48.954;9.474;2023-04-01T09:05:56;1.70;;;0.60;;
846;SDS011;410;48.954;9.474;2023-04-01T09:08:14;1.00;;;0.50;;
846;SDS011;410;48.954;9.474;2023-04-01T09:10:30;1.83;;;0.70;;
846;SDS011;410;48.954;9.474;2023-04-01T09:13:18;1.40;;;0.40;;
846;SDS011;410;48.954;9.474;2023-04-01T09:20:47;1.90;;;1.20;;
846;SDS011;410;48.954;9.474;2023-04-01T09:23:09;1.37;;;0.60;;
846;SDS011;410;48.954;9.474;2023-04-01T09:28:01;3.70;;;0.87;;
846;SDS011;410;48.954;9.474;2023-04-01T09:30:28;3.57;;;0.70;;
846;SDS011;410;48.954;9.474;2023-04-01T09:32:46;1.80;;;0.93;;
846;SDS011;410;48.954;9.474;2023-04-01T09:35:07;2.27;;;1.00;;
846;SDS011;410;48.954;9.474;2023-04-01T09:37:29;2.25;;;0.70;;
846;SDS011;410;48.954;9.474;2023-04-01T09:39:44;2.53;;;0.73;;
846;SDS011;410;48.954;9.474;2023-04-01T09:41:57;1.98;;;0.80;;
846;SDS011;410;48.954;9.474;2023-04-01T09:44:18;1.10;;;0.60;;
846;SDS011;410;48.954;9.474;2023-04-01T09:46:47;1.13;;;0.60;;
846;SDS011;410;48.954;9.474;2023-04-01T09:51:34;1.90;;;0.70;;
846;SDS011;410;48.954;9.474;2023-04-01T09:53:52;1.30;;;0.70;;
846;SDS011;410;48.954;9.474;2023-04-01T09:56:18;1.85;;;0.80;;
846;SDS011;410;48.954;9.474;2023-04-01T10:01:34;1.57;;;1.00;;
846;SDS011;410;48.954;9.474;2023-04-01T10:25:18;1.20;;;0.50;;
846;SDS011;410;48.954;9.474;2023-04-01T10:27:55;0.70;;;0.40;;
846;SDS011;410;48.954;9.474;2023-04-01T10:33:19;1.10;;;0.50;;
846;SDS011;410;48.954;9.474;2023-04-01T10:35:52;1.13;;;0.50;;
846;SDS011;410;48.954;9.474;2023-04-01T10:40:50;1.00;;;0.63;;
846;SDS011;410;48.954;9.474;2023-04-01T10:43:24;1.03;;;0.40;;
846;SDS011;410;48.954;9.474;2023-04-01T10:46:11;1.10;;;0.50;;
846;SDS011;410;48.954;9.474;2023-04-01T10:48:40;0.80;;;0.43;;
846;SDS011;410;48.954;9.474;2023-04-01T10:51:16;0.80;;;0.30;;
846;SDS011;410;48.954;9.474;2023-04-01T10:56:32;0.90;;;0.43;;
846;SDS011;410;48.954;9.474;2023-04-01T11:07:50;0.73;;;0.40;;
846;SDS011;410;48.954;9.474;2023-04-01T11:13:03;1.00;;;0.43;;
846;SDS011;410;48.954;9.474;2023-04-01T11:15:25;1.27;;;0.50;;
846;SDS011;410;48.954;9.474;2023-04-01T11:20:37;1.60;;;0.57;;
846;SDS011;410;48.954;9.474;2023-04-01T11:23:04;1.00;;;0.40;;
846;SDS011;410;48.954;9.474;2023-04-01T11:25:22;0.82;;;0.40;;
846;SDS011;410;48.954;9.474;2023-04-01T11:27:59;1.10;;;0.43;;
846;SDS011;410;48.954;9.474;2023-04-01T11:30:29;1.00;;;0.50;;
846;SDS011;410;48.954;9.474;2023-04-01T11:32:54;1.13;;;0.40;;
846;SDS011;410;48.954;9.474;2023-04-01T11:35:04;1.00;;;0.60;;
846;SDS011;410;48.954;9.474;2023-04-01T11:37:28;1.00;;;0.50;;
846;SDS011;410;48.954;9.474;2023-04-01T11:40:17;1.50;;;0.50;;
846;SDS011;410;48.954;9.474;2023-04-01T11:42:51;1.83;;;0.50;;
846;SDS011;410;48.954;9.474;2023-04-01T11:45:29;1.33;;;0.40;;
846;SDS011;410;48.954;9.474;2023-04-01T11:47:48;1.53;;;0.50;;
846;SDS011;410;48.954;9.474;2023-04-01T11:50:08;0.77;;;0.40;;
846;SDS011;410;48.954;9.474;2023-04-01T11:52:29;1.00;;;0.40;;
846;SDS011;410;48.954;9.474;2023-04-01T11:54:46;1.23;;;0.50;;
846;SDS011;410;48.954;9.474;2023-04-01T11:57:02;0.90;;;0.50;;
846;SDS011;410;48.954;9.474;2023-04-01T11:59:15;1.00;;;0.43;;
846;SDS011;410;48.954;9.474;2023-04-01T12:01:43;1.10;;;0.40;;
846;SDS011;410;48.954;9.474;2023-04-01T12:04:00;0.97;;;0.47;;
846;SDS011;410;48.954;9.474;2023-04-01T12:06:35;0.80;;;0.40;;
846;SDS011;410;48.954;9.474;2023-04-01T12:08:46;0.80;;;0.40;;
846;SDS011;410;48.954;9.474;2023-04-01T12:10:55;1.03;;;0.50;;
846;SDS011;410;48.954;9.474;2023-04-01T12:13:04;1.13;;;0.47;;
846;SDS011;410;48.954;9.474;2023-04-01T12:15:17;1.00;;;0.40;;
846;SDS011;410;48.954;9.474;2023-04-01T12:17:28;1.77;;;0.50;;
846;SDS011;410;48.954;9.474;2023-04-01T12:19:39;1.50;;;0.40;;
846;SDS011;410;48.954;9.474;2023-04-01T12:21:50;0.70;;;0.40;;
846;SDS011;410;48.954;9.474;2023-04-01T12:26:35;1.00;;;0.50;;
846;SDS011;410;48.954;9.474;2023-04-01T12:28:50;0.80;;;0.40;;
846;SDS011;410;48.954;9.474;2023-04-01T12:31:04;1.37;;;0.50;;
846;SDS011;410;48.954;9.474;2023-04-01T12:33:23;0.90;;;0.50;;
846;SDS011;410;48.954;9.474;2023-04-01T12:35:36;0.83;;;0.50;;
846;SDS011;410;48.954;9.474;2023-04-01T12:37:50;1.00;;;0.40;;
846;SDS011;410;48.954;9.474;2023-04-01T12:40:06;0.90;;;0.50;;
846;SDS011;410;48.954;9.474;2023-04-01T12:42:23;1.07;;;0.50;;
846;SDS011;410;48.954;9.474;2023-04-01T12:44:41;0.90;;;0.53;;
846;SDS011;410;48.954;9.474;2023-04-01T12:47:00;0.97;;;0.50;;
846;SDS011;410;48.954;9.474;2023-04-01T12:49:18;0.80;;;0.37;;
846;SDS011;410;48.954;9.474;2023-04-01T12:51:46;1.13;;;0.40;;
846;SDS011;410;48.954;9.474;2023-04-01T12:54:06;1.17;;;0.33;;
846;SDS011;410;48.954;9.474;2023-04-01T12:56:31;0.77;;;0.37;;
846;SDS011;410;48.954;9.474;2023-04-01T12:59:00;1.10;;;0.40;;
846;SDS011;410;48.954;9.474;2023-04-01T13:01:30;1.60;;;0.47;;
846;SDS011;410;48.954;9.474;2023-04-01T13:03:49;0.93;;;0.47;;
846;SDS011;410;48.954;9.474;2023-04-01T13:06:13;1.80;;;0.50;;
846;SDS011;410;48.954;9.474;2023-04-01T13:08:31;0.80;;;0.40;;
846;SDS011;410;48.954;9.474;2023-04-01T13:10:41;0.70;;;0.33;;
846;SDS011;410;48.954;9.474;2023-04-01T13:15:30;0.93;;;0.40;;
846;SDS011;410;48.954;9.474;2023-04-01T13:17:39;1.17;;;0.67;;
846;SDS011;410;48.954;9.474;2023-04-01T13:19:46;1.10;;;0.60;;
846;SDS011;410;48.954;9.474;2023-04-01T13:22:09;1.17;;;0.40;;
846;SDS011;410;48.954;9.474;2023-04-01T13:24:20;0.87;;;0.40;;
846;SDS011;410;48.954;9.474;2023-04-01T13:26:29;0.83;;;0.30;;
846;SDS011;410;48.954;9.474;2023-04-01T13:28:39;0.80;;;0.40;;
846;SDS011;410;48.954;9.474;2023-04-01T13:30:46;0.77;;;0.37;;
846;SDS011;410;48.954;9.474;2023-04-01T13:32:54;3.40;;;0.63;;
846;SDS011;410;48.954;9.474;2023-04-01T13:35:08;1.30;;;0.90;;
846;SDS011;410;48.954;9.474;2023-04-01T13:37:41;2.83;;;0.77;;
846;SDS011;410;48.954;9.474;2023-04-01T13:39:56;1.00;;;0.50;;
846;SDS011;410;48.954;9.474;2023-04-01T13:42:21;0.90;;;0.50;;
846;SDS011;410;48.954;9.474;2023-04-01T13:44:28;1.00;;;0.60;;
846;SDS011;410;48.954;9.474;2023-04-01T13:46:38;0.90;;;0.50;;
846;SDS011;410;48.954;9.474;2023-04-01T13:56:42;0.80;;;0.40;;
846;SDS011;410;48.954;9.474;2023-04-01T14:01:12;1.10;;;0.50;;
846;SDS011;410;48.954;9.474;2023-04-01T14:03:27;1.37;;;0.40;;
846;SDS011;410;48.954;9.474;2023-04-01T14:05:36;1.00;;;0.60;;
846;SDS011;410;48.954;9.474;2023-04-01T14:07:50;4.80;;;0.70;;
846;SDS011;410;48.954;9.474;2023-04-01T14:10:16;0.97;;;0.53;;
846;SDS011;410;48.954;9.474;2023-04-01T14:12:26;1.93;;;0.53;;
846;SDS011;410;48.954;9.474;2023-04-01T14:14:36;1.30;;;0.60;;
846;SDS011;410;48.954;9.474;2023-04-01T14:16:57;1.40;;;0.63;;
846;SDS011;410;48.954;9.474;2023-04-01T14:19:21;2.33;;;0.80;;
846;SDS011;410;48.954;9.474;2023-04-01T14:21:33;1.10;;;0.67;;
846;SDS011;410;48.954;9.474;2023-04-01T14:23:42;1.27;;;0.90;;
846;SDS011;410;48.954;9.474;2023-04-01T14:28:29;1.00;;;0.80;;
846;SDS011;410;48.954;9.474;2023-04-01T14:30:50;1.10;;;0.80;;
846;SDS011;410;48.954;9.474;2023-04-01T14:33:01;2.93;;;0.70;;
846;SDS011;410;48.954;9.474;2023-04-01T14:35:14;0.90;;;0.50;;
846;SDS011;410;48.954;9.474;2023-04-01T14:37:33;1.40;;;0.63;;
846;SDS011;410;48.954;9.474;2023-04-01T14:40:19;1.67;;;0.40;;
846;SDS011;410;48.954;9.474;2023-04-01T14:42:45;1.23;;;0.63;;
846;SDS011;410;48.954;9.474;2023-04-01T14:45:12;0.97;;;0.57;;
846;SDS011;410;48.954;9.474;2023-04-01T14:47:48;1.47;;;0.60;;
846;SDS011;410;48.954;9.474;2023-04-01T14:50:02;1.00;;;0.60;;
846;SDS011;410;48.954;9.474;2023-04-01T14:52:09;1.40;;;0.70;;
846;SDS011;410;48.954;9.474;2023-04-01T14:54:16;1.10;;;0.50;;
846;SDS011;410;48.954;9.474;2023-04-01T14:56:38;2.10;;;0.50;;
846;SDS011;410;48.954;9.474;2023-04-01T14:58:45;1.10;;;0.40;;
846;SDS011;410;48.954;9.474;2023-04-01T15:00:52;0.80;;;0.40;;
846;SDS011;410;48.954;9.474;2023-04-01T15:03:01;1.20;;;0.60;;
846;SDS011;410;48.954;9.474;2023-04-01T15:05:12;0.90;;;0.50;;
846;SDS011;410;48.954;9.474;2023-04-01T15:09:47;1.53;;;0.50;;
846;SDS011;410;48.954;9.474;2023-04-01T15:12:00;0.80;;;0.40;;
846;SDS011;410;48.954;9.474;2023-04-01T15:14:20;1.20;;;0.80;;
846;SDS011;410;48.954;9.474;2023-04-01T15:16:30;0.90;;;0.43;;
846;SDS011;410;48.954;9.474;2023-04-01T15:18:39;0.90;;;0.43;;
846;SDS011;410;48.954;9.474;2023-04-01T15:21:01;1.10;;;0.80;;
846;SDS011;410;48.954;9.474;2023-04-01T15:23:27;2.00;;;0.50;;
846;SDS011;410;48.954;9.474;2023-04-01T15:25:41;0.80;;;0.40;;
846;SDS011;410;48.954;9.474;2023-04-01T15:27:49;0.90;;;0.50;;
846;SDS011;410;48.954;9.474;2023-04-01T15:29:58;1.00;;;0.40;;
846;SDS011;410;48.954;9.474;2023-04-01T15:32:15;1.00;;;0.43;;
846;SDS011;410;48.954;9.474;2023-04-01T15:34:28;1.57;;;0.70;;
846;SDS011;410;48.954;9.474;2023-04-01T15:36:36;1.57;;;0.90;;